Time;durP1;ratioP1;P1;durP2;ratioP2;P2;SDS_P1;SDS_P2;PMS_P1;PMS_P2;Temp;Humidity;BMP_temperature;BMP_pressure;BME280_temperature;BME280_humidity;BME280_pressure;Samples;Min_cycle;Max_cycle;Signal;HPM_P1;HPM_P2
2022/12/28 00:00:39;;;;;;;9.60;2.00;;;;;;;5.11;100.00;101074.19;5224213;28;20025;-78
2022/12/28 00:03:10;;;;;;;6.93;2.15;;;;;;;5.11;100.00;101074.19;5223517;28;20039;-78
2022/12/28 00:05:40;;;;;;;6.40;1.75;;;;;;;5.09;100.00;101070.75;5224066;28;20021;-78
2022/12/28 00:08:10;;;;;;;9.30;2.05;;;;;;;5.21;100.00;101057.72;5224085;28;20386;-77
2022/12/28 00:10:41;;;;;;;9.52;2.17;;;;;;;5.25;100.00;101059.41;5223291;28;20025;-77
2022/12/28 00:13:11;;;;;;;13.88;2.15;;;;;;;5.19;100.00;101062.03;5212226;28;20052;-78
2022/12/28 00:15:41;;;;;;;13.00;2.90;;;;;;;5.18;100.00;101042.19;5221946;28;20037;-77
2022/12/28 00:18:11;;;;;;;8.30;2.60;;;;;;;5.20;100.00;101035.28;5222261;28;20247;-77
2022/12/28 00:20:42;;;;;;;8.32;2.00;;;;;;;5.17;100.00;101037.88;5223395;28;20028;-76
2022/12/28 00:23:12;;;;;;;8.20;2.25;;;;;;;5.17;100.00;101030.09;5222467;28;20060;-77
2022/12/28 00:25:42;;;;;;;7.32;2.10;;;;;;;5.31;100.00;101019.66;5206762;28;20098;-78
2022/12/28 00:30:46;;;;;;;9.48;2.30;;;;;;;5.37;100.00;101014.41;5197878;28;20057;-71
2022/12/28 00:33:16;;;;;;;7.53;1.85;;;;;;;5.33;100.00;101003.22;5200864;28;20029;-72
2022/12/28 00:35:52;;;;;;;6.25;1.60;;;;;;;5.34;100.00;101011.84;5202437;28;20421;-72
2022/12/28 00:38:22;;;;;;;7.45;1.73;;;;;;;5.26;100.00;101004.13;5190865;28;20087;-72
2022/12/28 00:40:53;;;;;;;6.55;1.58;;;;;;;5.22;100.00;100993.81;5180809;28;20491;-72
2022/12/28 00:43:23;;;;;;;3.95;1.42;;;;;;;5.20;100.00;100999.00;5163214;28;20092;-71
2022/12/28 00:45:54;;;;;;;10.45;1.60;;;;;;;5.11;100.00;101000.81;5187763;28;20052;-71
2022/12/28 00:48:24;;;;;;;4.10;1.50;;;;;;;5.10;100.00;100994.75;5179529;28;20037;-72
2022/12/28 00:51:07;;;;;;;6.07;1.58;;;;;;;5.15;100.00;100987.81;5180560;28;20312;-72
2022/12/28 00:53:38;;;;;;;6.53;1.67;;;;;;;5.10;100.00;100981.81;5166325;28;20034;-72
2022/12/28 00:56:14;;;;;;;6.30;1.30;;;;;;;5.17;100.00;100980.88;5168990;28;20048;-72
2022/12/28 00:58:45;;;;;;;4.85;1.60;;;;;;;5.16;100.00;100973.13;5178412;28;20029;-72
2022/12/28 01:01:19;;;;;;;5.63;1.60;;;;;;;5.12;100.00;100972.28;5181379;28;20034;-72
2022/12/28 01:03:50;;;;;;;5.70;1.20;;;;;;;5.11;100.00;100962.81;5180824;28;20061;-72
2022/12/28 01:06:20;;;;;;;6.40;1.65;;;;;;;5.05;100.00;100956.81;5184093;28;20083;-72
2022/12/28 01:08:51;;;;;;;4.97;1.40;;;;;;;5.11;100.00;100949.84;5189517;28;20049;-72
2022/12/28 01:11:27;;;;;;;4.65;1.27;;;;;;;5.10;100.00;100953.31;5181750;28;20092;-72
2022/12/28 01:14:00;;;;;;;5.25;1.40;;;;;;;5.13;100.00;100939.50;5178509;28;20057;-72
2022/12/28 01:16:33;;;;;;;5.75;1.27;;;;;;;5.26;100.00;100939.38;5164911;28;20325;-72
2022/12/28 01:19:05;;;;;;;5.28;1.70;;;;;;;5.14;100.00;100938.63;5179598;28;20030;-72
2022/12/28 01:21:36;;;;;;;6.95;1.33;;;;;;;5.16;100.00;100936.88;5169520;28;20380;-72
2022/12/28 01:24:07;;;;;;;7.55;1.33;;;;;;;5.13;100.00;100942.91;5181089;28;20030;-73
2022/12/28 01:26:37;;;;;;;9.48;1.90;;;;;;;5.13;100.00;100927.38;5179247;28;20038;-71
2022/12/28 01:29:08;;;;;;;4.72;1.70;;;;;;;5.18;100.00;100925.59;5185445;28;20116;-71
2022/12/28 01:31:38;;;;;;;3.80;1.25;;;;;;;5.13;100.00;100927.38;5185695;28;20248;-72
2022/12/28 01:34:08;;;;;;;6.28;1.40;;;;;;;5.05;100.00;100915.38;5179025;28;20427;-72
2022/12/28 01:36:39;;;;;;;4.38;1.20;;;;;;;5.12;100.00;100909.28;5179805;28;20130;-72
2022/12/28 01:39:09;;;;;;;7.13;1.40;;;;;;;5.01;100.00;100898.13;5178650;28;20502;-72
2022/12/28 01:41:41;;;;;;;5.90;1.30;;;;;;;5.04;100.00;100888.63;5179386;28;20557;-72
2022/12/28 01:44:11;;;;;;;5.63;1.40;;;;;;;4.98;100.00;100893.00;5184841;28;20026;-72
2022/12/28 01:46:48;;;;;;;3.42;1.13;;;;;;;5.01;100.00;100880.84;5183207;28;20036;-72
2022/12/28 01:49:29;;;;;;;4.97;1.38;;;;;;;5.02;100.00;100877.41;5178895;28;20036;-73
2022/12/28 01:52:11;;;;;;;8.95;1.50;;;;;;;5.03;100.00;100865.31;5179198;28;20030;-72
2022/12/28 01:54:51;;;;;;;6.20;1.50;;;;;;;5.15;100.00;100863.47;5175461;28;20638;-72
2022/12/28 01:57:26;;;;;;;4.95;1.52;;;;;;;5.15;100.00;100850.50;5180354;28;20129;-72
2022/12/28 02:00:05;;;;;;;8.77;1.90;;;;;;;5.18;100.00;100854.81;5189609;28;20482;-72
2022/12/28 02:02:36;;;;;;;8.15;1.83;;;;;;;5.21;100.00;100849.59;5179704;28;20338;-72
2022/12/28 02:05:08;;;;;;;7.10;1.48;;;;;;;5.18;100.00;100832.34;5180441;28;20104;-72
2022/12/28 02:08:01;;;;;;;7.80;1.55;;;;;;;5.23;100.00;100838.38;5188752;28;20120;-72
2022/12/28 02:10:35;;;;;;;8.20;1.38;;;;;;;5.33;100.00;100834.78;5177553;28;20017;-72
2022/12/28 02:13:05;;;;;;;8.00;1.60;;;;;;;5.28;100.00;100823.63;5179800;28;20418;-72
2022/12/28 02:15:35;;;;;;;11.82;2.17;;;;;;;5.33;100.00;100829.59;5178752;28;20101;-73
2022/12/28 02:18:06;;;;;;;5.82;1.80;;;;;;;5.31;100.00;100818.41;5177713;28;20160;-73
2022/12/28 02:21:16;;;;;;;5.50;1.40;;;;;;;5.37;100.00;100807.13;5182189;28;20040;-72
2022/12/28 02:24:24;;;;;;;5.95;1.52;;;;;;;5.38;100.00;100805.38;5172060;28;20506;-71
2022/12/28 02:27:09;;;;;;;5.95;1.67;;;;;;;5.31;100.00;100797.69;5178308;28;20300;-73
2022/12/28 02:29:58;;;;;;;4.85;1.42;;;;;;;5.30;100.00;100795.97;5186667;28;20450;-72
2022/12/28 02:32:45;;;;;;;6.47;1.55;;;;;;;5.34;100.00;100792.44;5182861;28;20227;-72
2022/12/28 02:35:23;;;;;;;6.32;1.25;;;;;;;5.40;100.00;100789.81;5176861;28;20464;-72
2022/12/28 02:38:00;;;;;;;6.85;1.80;;;;;;;5.23;100.00;100778.78;5183736;28;20038;-71
2022/12/28 02:41:16;;;;;;;6.20;1.48;;;;;;;5.29;100.00;100778.69;5182782;28;20411;-71
2022/12/28 02:43:47;;;;;;;3.58;1.30;;;;;;;5.29;100.00;100778.69;5181587;28;20046;-72
2022/12/28 02:52:20;;;;;;;8.80;1.98;;;;;;;5.25;100.00;100739.88;5185997;28;20137;-72
2022/12/28 02:58:04;;;;;;;4.28;1.30;;;;;;;5.23;100.00;100723.50;5181997;28;20033;-71
2022/12/28 03:01:16;;;;;;;5.50;1.83;;;;;;;5.22;100.00;100738.22;5182867;28;20049;-72
2022/12/28 03:03:55;;;;;;;5.13;1.42;;;;;;;5.21;100.00;100741.66;5183117;28;20199;-72
2022/12/28 03:10:24;;;;;;;10.20;1.80;;;;;;;5.20;100.00;100734.78;5189888;28;20688;-71
2022/12/28 03:16:09;;;;;;;7.00;1.60;;;;;;;5.35;100.00;100721.63;5185610;28;20099;-71
2022/12/28 03:33:03;;;;;;;4.78;1.50;;;;;;;5.50;100.00;100704.16;5183752;28;20417;-72
2022/12/28 03:35:48;;;;;;;6.80;1.42;;;;;;;5.53;100.00;100700.66;5180775;28;20034;-71
2022/12/28 03:38:40;;;;;;;6.57;1.50;;;;;;;5.57;100.00;100703.19;5182201;28;20018;-72
2022/12/28 03:41:30;;;;;;;4.45;1.50;;;;;;;5.65;100.00;100695.31;5178246;28;20022;-73
2022/12/28 03:44:09;;;;;;;6.80;1.90;;;;;;;5.73;100.00;100689.13;5188540;28;20046;-72
2022/12/28 03:46:47;;;;;;;5.70;1.80;;;;;;;5.85;100.00;100689.00;5182412;28;20381;-73
2022/12/28 03:49:18;;;;;;;5.30;1.70;;;;;;;5.85;100.00;100688.13;5181122;28;20041;-72
2022/12/28 03:51:49;;;;;;;9.32;1.88;;;;;;;5.86;100.00;100674.28;5181192;28;20080;-72
2022/12/28 03:54:20;;;;;;;5.65;1.90;;;;;;;5.87;100.00;100673.41;5181644;28;20666;-72
2022/12/28 03:56:51;;;;;;;7.03;1.85;;;;;;;5.79;100.00;100675.25;5181268;28;20043;-72
2022/12/28 03:59:21;;;;;;;6.63;2.00;;;;;;;5.86;100.00;100654.41;5185533;28;20277;-72
2022/12/28 04:01:51;;;;;;;7.70;1.70;;;;;;;5.96;100.00;100648.22;5187896;28;20025;-72
2022/12/28 04:04:22;;;;;;;7.97;1.73;;;;;;;5.87;100.00;100639.69;5181034;28;20141;-72
2022/12/28 04:06:52;;;;;;;5.45;1.73;;;;;;;5.85;100.00;100639.72;5187328;28;20487;-72
2022/12/28 04:09:22;;;;;;;9.45;1.73;;;;;;;5.91;100.00;100636.19;5185168;28;20034;-71
2022/12/28 04:11:52;;;;;;;4.20;1.73;;;;;;;5.92;100.00;100648.28;5180469;28;20030;-72
2022/12/28 04:14:23;;;;;;;5.43;1.63;;;;;;;5.94;100.00;100628.34;5188861;28;20025;-73
2022/12/28 04:16:53;;;;;;;7.45;2.00;;;;;;;5.94;100.00;100625.75;5184681;28;20112;-72
2022/12/28 04:19:23;;;;;;;5.88;1.70;;;;;;;6.04;100.00;100623.00;5164956;28;20060;-71
2022/12/28 04:21:54;;;;;;;6.50;1.88;;;;;;;6.02;100.00;100622.16;5181283;28;20033;-72
2022/12/28 04:24:24;;;;;;;6.85;2.00;;;;;;;6.05;100.00;100616.91;5163590;28;20042;-72
2022/12/28 04:26:55;;;;;;;9.40;2.15;;;;;;;6.09;100.00;100599.56;5182409;28;20112;-72
2022/12/28 04:29:25;;;;;;;8.63;1.90;;;;;;;6.00;100.00;100604.91;5184302;28;20049;-72
2022/12/28 04:31:55;;;;;;;7.30;1.67;;;;;;;6.06;100.00;100594.44;5178406;28;20681;-73
2022/12/28 04:34:26;;;;;;;5.25;1.67;;;;;;;6.00;100.00;100591.94;5179748;28;20446;-72
2022/12/28 04:36:56;;;;;;;8.70;2.25;;;;;;;6.02;100.00;100584.97;5179397;28;20029;-73
2022/12/28 04:39:26;;;;;;;6.00;1.80;;;;;;;6.08;100.00;100577.09;5184406;28;20053;-72
2022/12/28 04:41:57;;;;;;;6.35;1.80;;;;;;;6.13;100.00;100564.91;5181195;28;20092;-73
2022/12/28 04:44:27;;;;;;;7.20;2.00;;;;;;;6.00;100.00;100560.81;5190146;28;20033;-72
2022/12/28 04:46:57;;;;;;;7.15;1.98;;;;;;;6.04;100.00;100563.31;5184786;28;20677;-72
2022/12/28 04:49:27;;;;;;;6.35;1.73;;;;;;;6.03;100.00;100551.25;5180176;28;20512;-72
2022/12/28 04:51:58;;;;;;;7.22;1.83;;;;;;;6.03;100.00;100547.78;5179834;28;20431;-72
2022/12/28 04:54:28;;;;;;;5.70;1.85;;;;;;;6.01;100.00;100534.00;5185993;28;20056;-72
2022/12/28 04:56:58;;;;;;;4.70;1.70;;;;;;;6.04;100.00;100531.31;5179770;28;20042;-72
2022/12/28 04:59:29;;;;;;;3.10;1.52;;;;;;;5.99;100.00;100521.06;5184973;28;20499;-72
2022/12/28 05:01:59;;;;;;;4.82;1.77;;;;;;;6.05;100.00;100518.34;5185500;28;20040;-72
2022/12/28 05:04:30;;;;;;;7.28;1.70;;;;;;;6.04;100.00;100529.59;5181409;28;20072;-71
2022/12/28 05:07:00;;;;;;;5.78;1.50;;;;;;;6.10;100.00;100513.09;5181795;28;20026;-72
2022/12/28 05:09:30;;;;;;;5.28;1.60;;;;;;;6.04;100.00;100524.41;5181866;28;20030;-72
2022/12/28 05:12:01;;;;;;;6.38;1.83;;;;;;;6.04;100.00;100508.84;5179632;28;20029;-73
2022/12/28 05:14:31;;;;;;;4.18;1.40;;;;;;;6.13;100.00;100497.44;5187109;28;20033;-72
2022/12/28 05:17:01;;;;;;;7.85;1.70;;;;;;;6.11;100.00;100496.63;5184159;28;20041;-71
2022/12/28 05:19:31;;;;;;;3.65;1.35;;;;;;;6.16;100.00;100487.00;5172825;28;20025;-71
2022/12/28 05:22:02;;;;;;;5.88;1.52;;;;;;;6.10;100.00;100492.31;5179246;28;20187;-71
2022/12/28 05:24:32;;;;;;;3.42;1.40;;;;;;;6.08;100.00;100488.91;5179895;28;20687;-72
2022/12/28 05:27:03;;;;;;;6.05;1.48;;;;;;;6.17;100.00;100484.41;5177117;28;20264;-72
2022/12/28 05:29:33;;;;;;;6.07;1.80;;;;;;;6.21;100.00;100475.66;5185283;28;20030;-72
2022/12/28 05:32:04;;;;;;;6.28;1.35;;;;;;;6.24;100.00;100469.56;5179951;28;20048;-72
2022/12/28 05:34:34;;;;;;;3.28;1.48;;;;;;;6.22;100.00;100455.78;5177844;28;20033;-72
2022/12/28 05:37:05;;;;;;;5.70;1.77;;;;;;;6.23;100.00;100453.13;5186780;28;20053;-72
2022/12/28 05:39:35;;;;;;;4.88;1.60;;;;;;;6.26;100.00;100449.63;5184248;28;20105;-72
2022/12/28 05:42:05;;;;;;;5.13;1.65;;;;;;;6.25;100.00;100448.75;5178335;28;20591;-72
2022/12/28 05:44:36;;;;;;;4.47;1.17;;;;;;;6.34;100.00;100437.34;5188308;28;20122;-72
2022/12/28 05:47:06;;;;;;;4.55;1.40;;;;;;;6.36;100.00;100438.16;5178660;28;20499;-72
2022/12/28 05:49:36;;;;;;;5.75;1.50;;;;;;;6.29;100.00;100432.25;5181164;28;20454;-72
2022/12/28 05:52:06;;;;;;;5.40;1.40;;;;;;;6.42;100.00;100438.91;5179988;28;20020;-72
2022/12/28 05:54:37;;;;;;;3.63;1.65;;;;;;;6.48;100.00;100432.72;5179335;28;20398;-73
2022/12/28 05:57:07;;;;;;;5.85;1.42;;;;;;;6.48;100.00;100427.53;5177055;28;20021;-73
2022/12/28 05:59:37;;;;;;;4.63;1.52;;;;;;;6.41;100.00;100420.78;5187654;28;20044;-72
2022/12/28 06:02:08;;;;;;;5.82;1.77;;;;;;;6.62;100.00;100415.94;5181208;28;20026;-72
2022/12/28 06:04:38;;;;;;;6.72;1.73;;;;;;;6.63;100.00;100422.00;5178713;28;20475;-72
2022/12/28 06:07:08;;;;;;;6.50;1.52;;;;;;;6.54;100.00;100412.69;5184802;28;20022;-72
2022/12/28 06:09:38;;;;;;;5.55;1.75;;;;;;;6.59;100.00;100410.00;5181595;28;20495;-73
2022/12/28 06:12:10;;;;;;;4.43;1.60;;;;;;;6.62;100.00;100412.50;5174568;28;20119;-72
2022/12/28 06:14:40;;;;;;;6.03;1.75;;;;;;;6.65;100.00;100394.28;5177559;28;20057;-72
2022/12/28 06:17:10;;;;;;;4.18;1.55;;;;;;;6.64;100.00;100397.75;5179464;28;20034;-71
2022/12/28 06:19:40;;;;;;;5.28;1.70;;;;;;;6.63;100.00;100396.06;5180733;28;20249;-73
2022/12/28 06:22:11;;;;;;;6.10;1.80;;;;;;;6.69;100.00;100391.56;5186607;28;20024;-72
2022/12/28 06:24:41;;;;;;;4.78;1.70;;;;;;;6.77;100.00;100378.41;5178184;28;20111;-72
2022/12/28 06:27:11;;;;;;;4.13;1.77;;;;;;;6.80;100.00;100393.91;5178043;28;20426;-70
2022/12/28 06:29:42;;;;;;;8.23;2.95;;;;;;;6.76;100.00;100394.88;5209622;22;20053;-76
2022/12/28 06:32:12;;;;;;;4.05;1.80;;;;;;;6.82;100.00;100398.19;5193965;28;20037;-72
2022/12/28 06:34:42;;;;;;;6.90;2.00;;;;;;;6.76;100.00;100392.28;5202260;28;20312;-74
2022/12/28 06:37:12;;;;;;;7.38;2.38;;;;;;;6.84;100.00;100385.16;5196525;28;20034;-71
2022/12/28 06:39:43;;;;;;;6.18;2.10;;;;;;;6.91;100.00;100378.94;5203493;28;20032;-73
2022/12/28 06:42:13;;;;;;;4.75;2.03;;;;;;;6.83;100.00;100383.47;5208381;28;20021;-72
2022/12/28 06:44:43;;;;;;;6.30;2.10;;;;;;;6.83;100.00;100381.72;5209947;28;20290;-73
2022/12/28 06:47:13;;;;;;;6.97;2.22;;;;;;;6.87;100.00;100383.34;5204409;28;20191;-73
2022/12/28 06:49:44;;;;;;;8.15;2.65;;;;;;;6.88;100.00;100373.81;5219516;28;20120;-72
2022/12/28 06:52:14;;;;;;;7.80;2.45;;;;;;;6.85;100.00;100366.97;5213817;28;20024;-72
2022/12/28 06:54:44;;;;;;;6.60;2.10;;;;;;;6.76;100.00;100371.50;5213597;28;20040;-74
2022/12/28 06:57:15;;;;;;;6.10;2.42;;;;;;;6.83;100.00;100367.88;5206765;28;20391;-76
2022/12/28 06:59:45;;;;;;;5.80;2.38;;;;;;;6.89;100.00;100365.97;5206843;28;20064;-73
2022/12/28 07:02:15;;;;;;;5.88;2.17;;;;;;;6.82;100.00;100366.16;5209309;28;20029;-74
2022/12/28 07:04:45;;;;;;;9.07;2.42;;;;;;;6.93;100.00;100356.38;5218088;28;20131;-71
2022/12/28 07:07:16;;;;;;;5.97;2.33;;;;;;;6.89;100.00;100370.31;5210359;28;20022;-73
2022/12/28 07:09:46;;;;;;;6.15;2.10;;;;;;;6.86;100.00;100357.41;5208475;28;20252;-73
2022/12/28 07:12:16;;;;;;;9.18;2.80;;;;;;;6.90;100.00;100361.66;5204804;28;20037;-73
2022/12/28 07:14:47;;;;;;;6.03;2.50;;;;;;;6.87;100.00;100364.31;5209806;28;20032;-75
2022/12/28 07:17:17;;;;;;;5.75;2.78;;;;;;;6.81;100.00;100338.50;5206430;28;20110;-73
2022/12/28 07:19:47;;;;;;;5.57;2.40;;;;;;;6.87;100.00;100352.19;5205739;28;20033;-74
2022/12/28 07:22:18;;;;;;;6.20;2.47;;;;;;;6.77;100.00;100344.66;5216455;28;20554;-72
2022/12/28 07:24:48;;;;;;;6.32;2.72;;;;;;;6.71;100.00;100347.38;5207770;28;20032;-73
2022/12/28 07:27:18;;;;;;;5.20;2.67;;;;;;;6.79;100.00;100342.88;5205601;28;20034;-73
2022/12/28 07:29:48;;;;;;;8.27;2.80;;;;;;;6.80;100.00;100342.81;5204870;28;20029;-73
2022/12/28 07:32:19;;;;;;;8.15;3.10;;;;;;;6.78;100.00;100342.00;5217913;28;20044;-74
2022/12/28 07:34:49;;;;;;;6.53;2.65;;;;;;;6.77;100.00;100340.31;5204959;28;20030;-73
2022/12/28 07:37:19;;;;;;;5.20;2.70;;;;;;;6.81;100.00;100335.91;5209196;28;20029;-74
2022/12/28 07:39:50;;;;;;;6.65;2.80;;;;;;;6.77;100.00;100331.66;5205837;28;20044;-74
2022/12/28 07:42:20;;;;;;;6.70;2.65;;;;;;;6.72;100.00;100338.69;5200236;28;20102;-73
2022/12/28 07:44:51;;;;;;;6.28;2.72;;;;;;;6.75;100.00;100343.84;5209543;28;20025;-73
2022/12/28 07:47:21;;;;;;;4.90;2.53;;;;;;;6.79;100.00;100341.13;5202178;28;20025;-73
2022/12/28 07:49:52;;;;;;;5.65;2.70;;;;;;;6.80;100.00;100327.22;5205768;28;20025;-74
2022/12/28 07:52:22;;;;;;;4.88;2.30;;;;;;;6.86;100.00;100342.69;5207853;28;20033;-73
2022/12/28 07:54:52;;;;;;;4.93;2.58;;;;;;;6.85;100.00;100332.31;5203978;28;20038;-73
2022/12/28 07:57:23;;;;;;;5.07;2.58;;;;;;;6.82;100.00;100335.00;5205488;28;20515;-75
2022/12/28 07:59:53;;;;;;;6.30;2.83;;;;;;;6.79;100.00;100333.31;5204921;28;20022;-74
2022/12/28 08:02:23;;;;;;;5.43;3.00;;;;;;;6.80;100.00;100329.00;5211700;28;20403;-73
2022/12/28 08:04:53;;;;;;;4.78;2.50;;;;;;;6.85;100.00;100328.00;5218192;28;20025;-72
2022/12/28 08:07:24;;;;;;;4.82;2.97;;;;;;;6.95;100.00;100333.81;5210228;28;20279;-75
2022/12/28 08:09:54;;;;;;;6.70;3.05;;;;;;;6.92;100.00;100326.94;5203015;28;20094;-75
2022/12/28 08:12:24;;;;;;;5.45;2.55;;;;;;;7.01;100.00;100326.72;5211354;28;20395;-73
2022/12/28 08:14:56;;;;;;;5.70;2.47;;;;;;;6.94;100.00;100325.16;5208958;28;20056;-73
2022/12/28 08:17:26;;;;;;;6.82;2.72;;;;;;;7.00;100.00;100334.53;5213504;28;20082;-74
2022/12/28 08:19:56;;;;;;;7.13;3.10;;;;;;;7.03;100.00;100330.13;5222575;28;20024;-75
2022/12/28 08:22:27;;;;;;;6.93;3.58;;;;;;;7.02;100.00;100331.03;5217241;28;20033;-73
2022/12/28 08:24:57;;;;;;;6.18;3.05;;;;;;;7.14;100.00;100337.66;5211815;28;20021;-74
2022/12/28 08:27:27;;;;;;;7.15;3.00;;;;;;;7.12;100.00;100334.25;5212499;28;20616;-73
2022/12/28 08:29:57;;;;;;;5.43;2.95;;;;;;;7.21;100.00;100318.41;5209641;28;20031;-75
2022/12/28 08:32:28;;;;;;;5.30;2.92;;;;;;;7.19;100.00;100331.47;5212506;28;20083;-72
2022/12/28 08:34:58;;;;;;;6.15;2.90;;;;;;;7.35;100.00;100325.81;5210111;28;20114;-74
2022/12/28 08:37:28;;;;;;;5.25;2.70;;;;;;;7.33;100.00;100324.16;5209078;28;20555;-73
2022/12/28 08:39:58;;;;;;;7.05;3.00;;;;;;;7.43;100.00;100331.66;5209888;28;20131;-73
2022/12/28 08:42:29;;;;;;;6.13;2.58;;;;;;;7.42;100.00;100321.28;5200585;28;20086;-75
2022/12/28 08:44:59;;;;;;;6.28;3.03;;;;;;;7.47;100.00;100322.88;5208645;28;20029;-74
2022/12/28 08:47:29;;;;;;;9.55;3.97;;;;;;;7.41;100.00;100311.78;5219414;28;20032;-73
2022/12/28 08:50:00;;;;;;;5.28;2.92;;;;;;;7.50;100.00;100312.41;5213934;28;20045;-73
2022/12/28 08:52:30;;;;;;;5.68;2.83;;;;;;;7.47;100.00;100317.69;5198320;28;20028;-74
2022/12/28 08:55:00;;;;;;;6.70;3.10;;;;;;;7.52;100.00;100310.59;5205409;28;20094;-74
2022/12/28 08:57:32;;;;;;;5.45;2.80;;;;;;;7.55;100.00;100312.28;5216265;28;20020;-73
2022/12/28 09:00:05;;;;;;;7.07;3.40;;;;;;;7.62;100.00;100317.25;5199147;28;20025;-73
2022/12/28 09:02:35;;;;;;;7.07;2.92;;;;;;;7.64;100.00;100314.59;5210981;28;20024;-75
2022/12/28 09:05:06;;;;;;;6.90;3.35;;;;;;;7.61;100.00;100307.75;5210324;28;20106;-73
2022/12/28 09:07:36;;;;;;;7.50;3.40;;;;;;;7.65;100.00;100313.69;5199110;28;20131;-73
2022/12/28 09:10:07;;;;;;;5.68;3.20;;;;;;;7.70;100.00;100315.28;5207493;28;20029;-75
2022/12/28 09:12:37;;;;;;;7.07;3.00;;;;;;;7.77;100.00;100321.19;5214277;28;20033;-74
2022/12/28 09:15:08;;;;;;;7.13;3.10;;;;;;;7.84;100.00;100325.31;5209944;28;20473;-73
2022/12/28 09:17:38;;;;;;;8.10;3.10;;;;;;;7.79;100.00;100335.84;5203704;28;20029;-73
2022/12/28 09:20:09;;;;;;;6.10;2.90;;;;;;;7.78;100.00;100326.34;5215324;28;20186;-73
2022/12/28 09:22:40;;;;;;;10.35;3.35;;;;;;;7.80;100.00;100321.94;5210053;28;20044;-75
2022/12/28 09:25:10;;;;;;;6.90;2.53;;;;;;;7.81;100.00;100328.84;5196519;28;20025;-76
2022/12/28 09:27:40;;;;;;;7.45;3.13;;;;;;;7.92;100.00;100323.34;5209343;28;20637;-76
2022/12/28 09:30:11;;;;;;;6.57;2.78;;;;;;;7.96;100.00;100322.34;5206056;28;20025;-74
2022/12/28 09:32:41;;;;;;;4.97;2.92;;;;;;;8.00;100.00;100314.41;5215047;28;20036;-74
2022/12/28 09:35:11;;;;;;;5.78;3.05;;;;;;;8.02;100.00;100317.81;5208270;28;20024;-73
2022/12/28 09:37:41;;;;;;;8.88;3.00;;;;;;;8.09;100.00;100308.09;5202219;28;20120;-73
2022/12/28 09:40:12;;;;;;;7.00;3.10;;;;;;;8.06;100.00;100314.22;5213516;28;20039;-73
2022/12/28 09:42:42;;;;;;;7.05;3.70;;;;;;;8.14;100.00;100320.06;5214564;28;20736;-74
2022/12/28 09:45:13;;;;;;;6.47;3.00;;;;;;;8.04;100.00;100317.78;5204181;28;20442;-76
2022/12/28 09:47:50;;;;;;;6.43;2.50;;;;;;;7.97;100.00;100319.72;5201013;28;20025;-73
2022/12/28 09:50:31;;;;;;;8.52;3.60;;;;;;;8.06;100.00;100329.00;5212998;28;20605;-74
2022/12/28 09:53:20;;;;;;;5.47;2.40;;;;;;;8.09;100.00;100318.50;5216589;28;20032;-74
2022/12/28 09:55:57;;;;;;;6.90;3.10;;;;;;;8.20;100.00;100322.50;5202933;28;20041;-73
2022/12/28 09:58:30;;;;;;;8.13;3.20;;;;;;;8.20;100.00;100322.50;5210007;28;20033;-75
2022/12/28 10:01:02;;;;;;;6.50;2.90;;;;;;;8.21;100.00;100324.22;5200007;28;20032;-75
2022/12/28 10:03:36;;;;;;;6.90;2.60;;;;;;;8.19;100.00;100326.00;5199450;28;20035;-73
2022/12/28 10:06:12;;;;;;;4.50;2.20;;;;;;;8.28;100.00;100328.34;5207989;28;20037;-73
2022/12/28 10:08:48;;;;;;;5.60;2.38;;;;;;;8.17;100.00;100322.56;5203667;28;20040;-73
2022/12/28 10:11:29;;;;;;;4.60;2.15;;;;;;;8.25;100.00;100315.41;5207764;28;20033;-73
2022/12/28 10:14:02;;;;;;;5.30;2.83;;;;;;;8.40;100.00;100312.34;5206349;28;20025;-76
2022/12/28 10:16:33;;;;;;;5.95;2.50;;;;;;;8.46;100.00;100312.16;5206667;28;20025;-74
2022/12/28 10:19:06;;;;;;;4.70;2.17;;;;;;;8.42;100.00;100296.69;5208978;28;20020;-75
2022/12/28 10:21:36;;;;;;;5.32;2.70;;;;;;;8.55;100.00;100298.84;5210950;28;20028;-73
2022/12/28 10:24:07;;;;;;;19.65;9.93;;;;;;;8.69;100.00;100301.84;5217368;28;20060;-73
2022/12/28 10:26:39;;;;;;;3.45;2.10;;;;;;;8.85;100.00;100290.03;5216928;28;20505;-75
2022/12/28 10:29:17;;;;;;;4.85;1.90;;;;;;;8.94;100.00;100296.69;5195846;28;20041;-73
2022/12/28 10:32:00;;;;;;;4.18;1.83;;;;;;;8.95;100.00;100301.88;5207743;28;20036;-75
2022/12/28 10:34:32;;;;;;;5.15;2.13;;;;;;;8.88;100.00;100300.34;5216167;28;20573;-75
2022/12/28 10:37:14;;;;;;;3.95;1.80;;;;;;;8.97;100.00;100301.81;5203653;28;20081;-75
2022/12/28 10:39:51;;;;;;;2.45;1.35;;;;;;;9.13;100.00;100295.16;5201538;28;20060;-73
2022/12/28 10:42:28;;;;;;;3.22;1.40;;;;;;;9.04;100.00;100296.34;5212668;28;20032;-74
2022/12/28 10:45:05;;;;;;;4.63;1.40;;;;;;;9.10;100.00;100306.53;5197860;28;20453;-75
2022/12/28 10:47:42;;;;;;;3.15;1.40;;;;;;;9.07;100.00;100309.25;5206617;28;20518;-73
2022/12/28 10:50:46;;;;;;;3.80;1.45;;;;;;;9.09;100.00;100302.22;5212824;28;20423;-74
2022/12/28 10:53:16;;;;;;;3.40;1.50;;;;;;;9.03;100.00;100312.03;5215143;28;20410;-73
2022/12/28 10:55:46;;;;;;;2.50;1.40;;;;;;;9.00;100.00;100299.97;5220343;28;20040;-74
2022/12/28 10:58:21;;;;;;;3.58;1.40;;;;;;;9.03;100.00;100297.25;5210201;28;20029;-75
2022/12/28 11:00:58;;;;;;;2.30;1.30;;;;;;;9.10;100.00;100297.88;5212233;28;20802;-73
2022/12/28 11:03:34;;;;;;;3.28;1.50;;;;;;;9.13;100.00;100292.56;5221070;28;20099;-73
2022/12/28 11:06:21;;;;;;;3.88;1.40;;;;;;;9.12;100.00;100283.03;5214411;28;20060;-75
2022/12/28 11:09:21;;;;;;;2.63;1.40;;;;;;;9.02;100.00;100284.25;5213237;28;20050;-74
2022/12/28 11:11:54;;;;;;;2.97;1.40;;;;;;;9.11;100.00;100278.72;5202073;28;20401;-72
2022/12/28 11:14:29;;;;;;;4.50;1.50;;;;;;;9.08;100.00;100271.88;5199480;28;20069;-72
2022/12/28 11:17:20;;;;;;;8.18;1.70;;;;;;;9.14;100.00;100262.06;5202893;28;20059;-73
2022/12/28 11:19:54;;;;;;;4.68;1.80;;;;;;;9.27;100.00;100265.09;5197911;28;20179;-72
2022/12/28 11:22:28;;;;;;;3.90;1.50;;;;;;;9.37;100.00;100256.06;5198176;28;20033;-76
2022/12/28 11:25:00;;;;;;;3.50;1.48;;;;;;;9.56;100.00;100264.91;5201942;28;20028;-73
2022/12/28 11:27:30;;;;;;;3.80;1.80;;;;;;;9.75;100.00;100245.06;5200697;28;20037;-73
2022/12/28 11:30:02;;;;;;;5.60;1.77;;;;;;;9.92;100.00;100248.75;5201207;28;20041;-73
2022/12/28 11:32:41;;;;;;;4.10;1.40;;;;;;;10.13;100.00;100236.69;5198873;28;20036;-75
2022/12/28 11:35:23;;;;;;;2.70;1.33;;;;;;;9.99;100.00;100242.38;5192908;28;20025;-75
2022/12/28 11:37:56;;;;;;;2.50;1.40;;;;;;;10.00;100.00;100235.41;5198793;28;20156;-73
2022/12/28 11:40:46;;;;;;;2.92;1.42;;;;;;;9.96;100.00;100229.44;5201575;28;20307;-74
2022/12/28 11:43:29;;;;;;;3.72;1.25;;;;;;;9.67;100.00;100239.31;5199872;28;20029;-74
2022/12/28 11:46:03;;;;;;;3.28;1.30;;;;;;;9.68;100.00;100235.78;5198929;28;20422;-73
2022/12/28 11:48:40;;;;;;;2.97;1.40;;;;;;;9.66;100.00;100237.59;5195494;28;20022;-73
2022/12/28 11:51:17;;;;;;;4.65;1.45;;;;;;;9.77;100.00;100230.19;5195232;28;20346;-73
2022/12/28 11:53:59;;;;;;;3.50;1.30;;;;;;;9.69;100.00;100222.66;5194766;28;20037;-74
2022/12/28 11:56:50;;;;;;;2.92;1.20;;;;;;;9.73;100.00;100215.56;5193477;28;20078;-74
2022/12/28 11:59:20;;;;;;;3.28;1.23;;;;;;;9.79;100.00;100224.03;5193220;28;20030;-74
2022/12/28 12:02:01;;;;;;;2.35;1.15;;;;;;;9.75;100.00;100221.59;5206168;28;20620;-74
2022/12/28 12:04:33;;;;;;;5.03;1.30;;;;;;;9.65;100.00;100225.47;5202524;28;20048;-72
2022/12/28 12:07:03;;;;;;;3.75;1.33;;;;;;;9.69;100.00;100211.38;5201880;28;20029;-72
2022/12/28 12:09:37;;;;;;;3.15;1.40;;;;;;;9.63;100.00;100211.63;5199231;28;20641;-72
2022/12/28 12:12:13;;;;;;;3.70;1.30;;;;;;;9.66;100.00;100208.91;5199905;28;20202;-69
2022/12/28 12:14:49;;;;;;;4.43;1.70;;;;;;;9.68;100.00;100207.91;5200097;28;20141;-73
2022/12/28 12:17:31;;;;;;;4.32;1.40;;;;;;;9.50;100.00;100216.44;5198393;28;20478;-74
2022/12/28 12:20:07;;;;;;;3.55;1.48;;;;;;;9.55;100.00;100213.66;5200067;28;20056;-74
2022/12/28 12:22:47;;;;;;;4.07;1.50;;;;;;;9.40;100.00;100219.44;5204221;28;20344;-73
2022/12/28 12:25:47;;;;;;;5.68;1.60;;;;;;;9.51;100.00;100209.47;5197985;28;20124;-72